PGUM/GUM METAR and TAF weather

Enter ICAO airport designator
Station Type Date Time Source
PGUM METAR 2021/01/27 12:54 UTC NOAA

PGUM 271254Z VRB04KT 10SM CLR 24/21 A2981 RMK AO2 SLP088 T02440206


Station Type Date Time Source
PGUM Decoded METAR 2021/01/27 12:54 UTC NOAA

Agana, Guam International Airport, GU, United States (PGUM) 13-29N 144-48E
Jan 27, 2021 - 07:54 AM EST / 2021.01.27 1254 UTC
Wind: Variable at 5 MPH (4 KT):0
Visibility: 10 mile(s):0
Sky conditions: clear
Temperature: 75.9 F (24.4 C)
Dew Point: 69.1 F (20.6 C)
Relative Humidity: 79%
Pressure (altimeter): 29.81 in. Hg (1009 hPa)
ob: PGUM 271254Z VRB04KT 10SM CLR 24/21 A2981 RMK AO2 SLP088 T02440206
cycle: 13

Station Type Date Time Source
PGUM TAF 2021/01/27 12:30 UTC NOAA

TAF PGUM 271127Z 2712/2818 06010KT P6SM FEW025 BKN050
FM280000 06010G18KT P6SM VCSH FEW020 SCT050
FM280800 08008KT P6SM VCSH FEW018 SCT040

Example: see airport list